createdAt,value
2018-12-29T08:29:02.575Z,23.40
2018-12-29T08:31:31.657Z,20.77
2018-12-29T08:34:00.703Z,26.03
2018-12-29T08:36:29.630Z,25.30
2018-12-29T08:38:58.574Z,26.10
2018-12-29T08:41:27.577Z,26.10
2018-12-29T08:43:56.595Z,26.03
2018-12-29T08:46:25.615Z,27.30
2018-12-29T08:48:54.518Z,25.67
2018-12-29T08:51:23.543Z,25.50
2018-12-29T08:53:53.478Z,27.70
2018-12-29T08:56:22.807Z,26.67
2018-12-29T08:58:52.142Z,27.17
2018-12-29T09:01:21.135Z,27.37
2018-12-29T09:03:50.069Z,26.80
2018-12-29T09:06:19.083Z,25.90
2018-12-29T09:08:48.150Z,26.47
2018-12-29T09:11:17.184Z,26.07
2018-12-29T09:13:46.142Z,21.97
2018-12-29T09:16:15.050Z,23.33
2018-12-29T09:18:49.708Z,22.37
2018-12-29T09:21:14.781Z,24.30
2018-12-29T09:23:43.703Z,21.40
2018-12-29T09:26:12.615Z,21.53
2018-12-29T09:28:41.680Z,20.87
2018-12-29T09:31:10.642Z,22.53
2018-12-29T09:33:39.648Z,20.50
2018-12-29T09:36:08.863Z,19.60
2018-12-29T09:38:37.818Z,22.10
2018-12-29T09:41:06.819Z,19.20
2018-12-29T09:43:36.036Z,18.13
2018-12-29T09:46:05.031Z,17.67
2018-12-29T09:48:34.031Z,15.43
2018-12-29T09:51:02.995Z,17.47
2018-12-29T09:53:31.945Z,15.80
2018-12-29T09:56:00.902Z,15.23
2018-12-29T09:58:29.902Z,15.47
2018-12-29T10:00:58.879Z,16.20
2018-12-29T10:03:27.887Z,15.93
2018-12-29T10:05:56.895Z,16.00
2018-12-29T10:08:25.887Z,15.47
2018-12-29T10:10:54.919Z,13.87
2018-12-29T10:13:23.931Z,14.70
2018-12-29T10:15:53.044Z,13.30
2018-12-29T10:18:22.051Z,13.00
2018-12-29T10:20:51.083Z,13.20
2018-12-29T10:23:20.081Z,13.23
2018-12-29T10:25:49.089Z,13.87
2018-12-29T10:28:18.214Z,13.67
2018-12-29T10:30:47.157Z,11.90
2018-12-29T10:33:16.371Z,12.90
2018-12-29T10:35:45.302Z,12.40
2018-12-29T10:38:14.241Z,12.87
2018-12-29T10:40:43.230Z,13.13
2018-12-29T10:43:12.740Z,13.20
2018-12-29T10:45:41.728Z,14.00
2018-12-29T10:48:10.640Z,12.10
2018-12-29T10:50:39.582Z,13.07
2018-12-29T10:53:08.518Z,12.17
2018-12-29T10:55:56.744Z,12.13
2018-12-29T10:58:25.809Z,13.50
2018-12-29T11:00:54.802Z,12.30
2018-12-29T11:03:23.840Z,12.80
2018-12-29T11:05:53.172Z,12.57
2018-12-29T11:08:22.082Z,12.70
2018-12-29T11:10:51.018Z,13.20
2018-12-29T11:13:20.010Z,12.30
2018-12-29T11:15:48.960Z,11.23
2018-12-29T11:18:17.890Z,12.90
2018-12-29T11:20:46.800Z,15.13
2018-12-29T11:23:15.707Z,13.80
2018-12-29T11:25:44.751Z,12.87
2018-12-29T11:28:13.665Z,14.47
2018-12-29T11:30:42.750Z,13.70
2018-12-29T11:33:11.674Z,14.90
2018-12-29T11:35:40.579Z,14.37
2018-12-29T11:38:09.564Z,11.67
2018-12-29T11:40:38.502Z,15.27
2018-12-29T11:43:07.437Z,12.10
2018-12-29T11:45:39.460Z,13.40
2018-12-29T11:48:08.379Z,12.60
2018-12-29T11:50:37.369Z,12.67
2018-12-29T11:53:06.417Z,13.43
2018-12-29T11:55:35.454Z,11.63
2018-12-29T11:58:04.452Z,12.07
2018-12-29T12:00:33.528Z,13.47
2018-12-29T12:03:02.541Z,10.90
2018-12-29T12:05:31.708Z,13.30
2018-12-29T12:08:00.775Z,11.43
2018-12-29T12:10:29.820Z,12.17
2018-12-29T12:12:58.886Z,10.60
2018-12-29T12:15:27.894Z,11.87
2018-12-29T12:18:06.416Z,13.23
2018-12-29T12:20:27.927Z,12.27
2018-12-29T12:22:56.909Z,11.70
2018-12-29T12:25:26.102Z,10.80
2018-12-29T12:27:55.385Z,10.90
2018-12-29T12:30:24.487Z,11.63
2018-12-29T12:32:53.508Z,12.50
2018-12-29T12:35:22.591Z,10.67
2018-12-29T12:37:51.678Z,10.83
2018-12-29T12:40:20.762Z,11.00
2018-12-29T12:42:50.050Z,11.40
2018-12-29T12:45:19.152Z,11.47
2018-12-29T12:47:48.324Z,10.87
2018-12-29T12:50:17.460Z,11.70
2018-12-29T12:52:46.451Z,10.07
2018-12-29T12:55:15.561Z,10.90
2018-12-29T12:57:44.551Z,11.13
2018-12-29T13:00:14.032Z,11.23
2018-12-29T13:02:43.041Z,10.70
2018-12-29T13:05:12.107Z,10.97
2018-12-29T13:07:41.379Z,9.20
2018-12-29T13:10:10.378Z,10.03
2018-12-29T13:12:39.511Z,10.53
2018-12-29T13:15:08.658Z,10.57
2018-12-29T13:17:37.665Z,9.90
2018-12-29T13:20:06.910Z,11.67
2018-12-29T13:22:36.053Z,11.80
2018-12-29T13:25:05.323Z,10.70
2018-12-29T13:27:34.390Z,12.57
2018-12-29T13:30:03.611Z,10.70
2018-12-29T13:32:32.637Z,12.10
2018-12-29T13:35:01.631Z,11.47
2018-12-29T13:37:30.602Z,10.90
2018-12-29T13:39:59.638Z,11.13
2018-12-29T13:42:28.879Z,11.80
2018-12-29T13:44:57.968Z,11.10
2018-12-29T13:47:27.271Z,11.70
2018-12-29T13:49:56.410Z,10.77
2018-12-29T13:52:25.530Z,11.13
2018-12-29T13:54:54.558Z,11.10
2018-12-29T13:57:23.547Z,11.00
2018-12-29T13:59:52.659Z,11.07
2018-12-29T14:02:21.675Z,12.43
2018-12-29T14:04:50.690Z,11.60
2018-12-29T14:07:19.675Z,13.27
2018-12-29T14:09:48.742Z,11.70
2018-12-29T14:12:17.646Z,10.83
2018-12-29T14:14:46.647Z,12.10
2018-12-29T14:17:15.751Z,12.00
2018-12-29T14:19:45.150Z,11.13
2018-12-29T14:22:14.146Z,11.77
2018-12-29T14:24:43.159Z,11.50
2018-12-29T14:27:12.411Z,11.03
2018-12-29T14:29:41.427Z,11.70
2018-12-29T14:32:10.450Z,12.63
2018-12-29T14:34:39.674Z,11.27
2018-12-29T14:37:08.839Z,11.30
2018-12-29T14:39:37.870Z,10.80
2018-12-29T14:42:06.869Z,11.37
2018-12-29T14:44:35.858Z,11.17
2018-12-29T14:47:04.934Z,13.07
2018-12-29T14:49:33.918Z,10.70
2018-12-29T14:52:03.143Z,10.80
2018-12-29T14:54:32.147Z,11.07
2018-12-29T14:57:01.153Z,12.57
2018-12-29T14:59:30.134Z,11.43
2018-12-29T15:01:59.148Z,13.80
2018-12-29T15:04:28.293Z,13.87
2018-12-29T15:06:57.441Z,12.47
2018-12-29T15:09:26.438Z,12.30
2018-12-29T15:11:55.504Z,11.93
2018-12-29T15:14:24.794Z,13.63
2018-12-29T15:16:54.275Z,13.80
2018-12-29T15:19:23.639Z,13.47
2018-12-29T15:21:53.011Z,13.10
2018-12-29T15:24:22.752Z,13.07
2018-12-29T15:26:52.165Z,13.07
2018-12-29T15:29:23.561Z,12.77
2018-12-29T15:31:52.798Z,12.77
2018-12-29T15:34:22.026Z,12.63
2018-12-29T15:36:51.105Z,13.20
2018-12-29T15:39:20.415Z,12.87
2018-12-29T15:41:49.414Z,12.20
2018-12-29T15:44:18.485Z,11.80
2018-12-29T15:46:47.603Z,13.17
2018-12-29T15:49:16.679Z,14.20
2018-12-29T15:51:47.175Z,14.40
2018-12-29T15:54:16.178Z,14.40
2018-12-29T15:56:45.169Z,13.70
2018-12-29T15:59:14.247Z,12.97
2018-12-29T16:01:43.258Z,15.20
2018-12-29T16:04:12.271Z,14.17
2018-12-29T16:06:41.388Z,13.73
2018-12-29T16:09:10.426Z,15.27
2018-12-29T16:11:40.119Z,13.70
2018-12-29T16:14:09.291Z,14.40
2018-12-29T16:16:38.589Z,13.30
2018-12-29T16:19:07.658Z,12.47
2018-12-29T16:21:36.642Z,12.60
2018-12-29T16:24:05.834Z,13.00
2018-12-29T16:26:34.869Z,14.83
2018-12-29T16:29:03.937Z,12.40
2018-12-29T16:31:32.950Z,12.80
2018-12-29T16:34:02.019Z,13.33
2018-12-29T16:36:31.426Z,13.33
2018-12-29T16:39:00.505Z,15.03
2018-12-29T16:41:29.496Z,13.10
2018-12-29T16:43:58.802Z,14.50
2018-12-29T16:46:28.098Z,13.37
2018-12-29T16:48:57.087Z,12.27
2018-12-29T16:51:26.075Z,13.23
2018-12-29T16:53:56.044Z,12.47
2018-12-29T16:56:25.038Z,13.07
2018-12-29T16:58:54.030Z,13.57
2018-12-29T17:01:23.027Z,12.70
2018-12-29T17:03:52.099Z,12.07
2018-12-29T17:06:21.078Z,14.27
2018-12-29T17:08:50.098Z,14.37
2018-12-29T17:11:19.084Z,12.07
2018-12-29T17:13:48.540Z,13.20
2018-12-29T17:16:17.521Z,12.60
2018-12-29T17:18:46.664Z,12.53
2018-12-29T17:21:15.670Z,11.90
2018-12-29T17:23:44.823Z,13.50
2018-12-29T17:26:13.896Z,13.27
2018-12-29T17:28:42.897Z,12.40
2018-12-29T17:31:12.233Z,10.97
2018-12-29T17:33:41.214Z,12.83
2018-12-29T17:36:10.632Z,11.87
2018-12-29T17:38:39.665Z,11.13
2018-12-29T17:41:09.164Z,11.37
2018-12-29T17:43:38.217Z,12.73
2018-12-29T17:46:07.223Z,13.00
2018-12-29T17:48:36.291Z,13.10
2018-12-29T17:51:05.378Z,11.70
2018-12-29T17:53:34.707Z,11.93
2018-12-29T17:56:03.747Z,13.83
2018-12-29T17:58:32.914Z,15.10
2018-12-29T18:01:02.014Z,13.17
2018-12-29T18:03:31.001Z,12.67
2018-12-29T18:06:00.371Z,11.43
2018-12-29T18:08:29.477Z,14.50
2018-12-29T18:10:58.435Z,14.07
2018-12-29T18:13:27.806Z,13.50
2018-12-29T18:15:56.820Z,12.80
2018-12-29T18:18:25.824Z,13.00
2018-12-29T18:20:54.862Z,12.40
2018-12-29T18:23:23.868Z,14.13
2018-12-29T18:25:53.191Z,12.67
2018-12-29T18:28:22.180Z,13.90
2018-12-29T18:30:51.214Z,13.40
2018-12-29T18:33:20.533Z,14.20
2018-12-29T18:35:49.547Z,13.33
2018-12-29T18:38:18.577Z,13.87
2018-12-29T18:40:47.663Z,12.97
2018-12-29T18:43:16.649Z,14.93
2018-12-29T18:45:45.735Z,13.33
2018-12-29T18:48:15.786Z,14.10
2018-12-29T18:50:44.783Z,14.10
2018-12-29T18:53:13.875Z,15.07
2018-12-29T18:55:42.899Z,13.60
2018-12-29T18:58:11.904Z,13.43
2018-12-29T19:00:40.922Z,15.57
2018-12-29T19:03:10.943Z,14.00
2018-12-29T19:05:40.111Z,14.27
2018-12-29T19:08:09.287Z,17.67
2018-12-29T19:10:38.331Z,14.67
2018-12-29T19:13:07.902Z,16.97
2018-12-29T19:15:37.368Z,14.83
2018-12-29T19:18:06.446Z,15.13
2018-12-29T19:20:35.832Z,17.23
2018-12-29T19:23:05.314Z,16.33
2018-12-29T19:25:34.372Z,16.10
2018-12-29T19:28:03.760Z,16.50
2018-12-29T19:30:33.798Z,17.23
2018-12-29T19:33:03.350Z,17.00
2018-12-29T19:35:32.665Z,16.17
2018-12-29T19:38:02.121Z,16.73
2018-12-29T19:40:31.959Z,17.20
2018-12-29T19:43:01.460Z,18.17
2018-12-29T19:45:30.735Z,17.17
2018-12-29T19:48:00.309Z,17.97
2018-12-29T19:50:29.980Z,16.57
2018-12-29T19:52:59.632Z,17.70
2018-12-29T19:55:28.691Z,16.63
2018-12-29T19:57:57.987Z,17.50
2018-12-29T20:00:27.305Z,17.57
2018-12-29T20:02:56.405Z,18.87
2018-12-29T20:05:25.682Z,19.43
2018-12-29T20:07:54.788Z,19.33
2018-12-29T20:10:23.938Z,17.80
2018-12-29T20:12:53.199Z,18.97
2018-12-29T20:15:22.389Z,19.40
2018-12-29T20:17:51.489Z,18.67
2018-12-29T20:20:20.579Z,19.77
2018-12-29T20:22:49.598Z,20.90
2018-12-29T20:25:18.948Z,19.60
2018-12-29T20:27:49.909Z,19.93
2018-12-29T20:30:18.993Z,20.07
2018-12-29T20:32:48.006Z,19.30
2018-12-29T20:35:17.095Z,21.00
2018-12-29T20:37:46.179Z,20.97
2018-12-29T20:40:15.311Z,19.17
2018-12-29T20:42:44.468Z,19.17
2018-12-29T20:45:13.744Z,19.30
2018-12-29T20:47:42.737Z,19.60
2018-12-29T20:50:11.823Z,19.30
2018-12-29T20:52:41.527Z,22.17
2018-12-29T20:55:10.590Z,21.87
2018-12-29T20:57:39.589Z,24.30
2018-12-29T21:00:10.155Z,20.43
2018-12-29T21:02:39.199Z,21.43
2018-12-29T21:05:08.675Z,19.50
2018-12-29T21:07:37.770Z,21.67
2018-12-29T21:10:08.943Z,22.30
2018-12-29T21:12:37.938Z,20.27
2018-12-29T21:15:07.152Z,19.63
2018-12-29T21:17:36.207Z,21.57
2018-12-29T21:20:05.789Z,22.50
2018-12-29T21:22:34.914Z,19.47
2018-12-29T21:25:04.378Z,21.17
2018-12-29T21:27:33.462Z,23.10
2018-12-29T21:30:02.551Z,18.27
2018-12-29T21:32:31.570Z,19.60
2018-12-29T21:35:00.692Z,21.50
2018-12-29T21:37:29.779Z,21.40
2018-12-29T21:39:58.822Z,21.17
2018-12-29T21:42:27.911Z,22.10
2018-12-29T21:44:57.241Z,21.50
2018-12-29T21:47:26.256Z,21.03
2018-12-29T21:49:55.256Z,20.10
2018-12-29T21:52:24.370Z,21.53
2018-12-29T21:54:53.451Z,21.10
2018-12-29T21:57:22.906Z,20.37
2018-12-29T21:59:52.348Z,20.67
2018-12-29T22:02:21.534Z,19.03
2018-12-29T22:04:50.771Z,20.87
2018-12-29T22:07:20.007Z,19.30
2018-12-29T22:09:49.429Z,21.70
2018-12-29T22:12:18.708Z,20.60
2018-12-29T22:14:48.058Z,20.50
2018-12-29T22:17:17.547Z,19.80
2018-12-29T22:19:46.775Z,20.83
2018-12-29T22:22:16.162Z,20.20
2018-12-29T22:24:45.788Z,23.07
2018-12-29T22:27:15.087Z,19.27
2018-12-29T22:29:44.334Z,19.73
2018-12-29T22:32:13.560Z,20.20
2018-12-29T22:34:42.932Z,21.33
2018-12-29T22:37:12.560Z,21.87
2018-12-29T22:39:41.985Z,23.50
2018-12-29T22:42:11.352Z,20.93
2018-12-29T22:44:40.577Z,21.20
2018-12-29T22:47:09.879Z,21.83
2018-12-29T22:49:39.489Z,23.23
2018-12-29T22:52:08.754Z,20.13
2018-12-29T22:54:38.308Z,21.77
2018-12-29T22:57:07.563Z,24.30
2018-12-29T22:59:36.972Z,19.67
